createdAt,value
2022-10-08T00:00:32.527Z,63.38
2022-10-08T00:01:36.877Z,63.38
2022-10-08T00:02:29.526Z,63.40
2022-10-08T00:03:29.782Z,63.42
2022-10-08T00:04:30.383Z,63.41
2022-10-08T00:05:37.706Z,63.41
2022-10-08T00:06:29.447Z,63.41
2022-10-08T00:07:35.924Z,63.39
2022-10-08T00:08:30.378Z,63.37
2022-10-08T00:09:29.637Z,63.38
2022-10-08T00:10:29.341Z,63.38
2022-10-08T00:11:29.368Z,63.37
2022-10-08T00:12:30.065Z,63.37
2022-10-08T00:13:35.656Z,63.36
2022-10-08T00:14:30.574Z,63.37
2022-10-08T00:15:30.531Z,63.37
2022-10-08T00:16:29.434Z,63.36
2022-10-08T00:17:30.248Z,63.36
2022-10-08T00:18:35.936Z,63.36
2022-10-08T00:19:29.245Z,63.36
2022-10-08T00:20:32.320Z,63.37
2022-10-08T00:21:29.311Z,63.38
2022-10-08T00:22:29.238Z,63.39
2022-10-08T00:23:35.543Z,63.42
2022-10-08T00:24:29.264Z,63.42
2022-10-08T00:25:29.237Z,63.42
2022-10-08T00:26:29.299Z,63.42
2022-10-08T00:27:29.106Z,63.40
2022-10-08T00:28:35.578Z,63.42
2022-10-08T00:29:29.140Z,63.44
2022-10-08T00:30:29.145Z,63.43
2022-10-08T00:31:29.205Z,63.45
2022-10-08T00:32:35.376Z,63.47
2022-10-08T00:33:29.378Z,63.45
2022-10-08T00:34:35.322Z,63.45
2022-10-08T00:35:29.326Z,63.47
2022-10-08T00:36:29.392Z,63.48
2022-10-08T00:37:29.154Z,63.49
2022-10-08T00:38:30.085Z,63.48
2022-10-08T00:39:31.843Z,63.47
2022-10-08T00:40:36.101Z,63.49
2022-10-08T00:41:42.110Z,63.46
2022-10-08T00:42:29.088Z,63.45
2022-10-08T00:43:28.951Z,63.45
2022-10-08T00:44:31.722Z,63.44
2022-10-08T00:45:29.002Z,63.41
2022-10-08T00:46:35.191Z,63.36
2022-10-08T00:47:29.165Z,63.36
2022-10-08T00:48:29.089Z,63.36
2022-10-08T00:49:29.131Z,63.37
2022-10-08T00:50:29.492Z,63.37
2022-10-08T00:51:28.909Z,63.36
2022-10-08T00:52:35.213Z,63.36
2022-10-08T00:53:28.761Z,63.36
2022-10-08T00:54:29.690Z,63.34
2022-10-08T00:55:29.513Z,63.32
2022-10-08T00:56:28.820Z,63.30
2022-10-08T00:57:28.761Z,63.28
2022-10-08T00:58:35.443Z,63.27
2022-10-08T00:59:30.191Z,63.26
2022-10-08T01:00:29.579Z,63.25
2022-10-08T01:01:28.875Z,63.26
2022-10-08T01:02:29.897Z,63.28
2022-10-08T01:03:28.743Z,63.26
2022-10-08T01:04:34.980Z,63.28
2022-10-08T01:05:29.498Z,63.28
2022-10-08T01:06:28.701Z,63.28
2022-10-08T01:07:28.873Z,63.26
2022-10-08T01:08:28.783Z,63.27
2022-10-08T01:09:34.950Z,63.25
2022-10-08T01:10:29.573Z,63.23
2022-10-08T01:11:28.634Z,63.24
2022-10-08T01:12:28.591Z,63.24
2022-10-08T01:13:28.903Z,63.21
2022-10-08T01:14:34.848Z,63.21
2022-10-08T01:15:28.803Z,63.18
2022-10-08T01:16:28.942Z,63.18
2022-10-08T01:17:29.474Z,63.15
2022-10-08T01:18:28.489Z,63.14
2022-10-08T01:19:28.877Z,63.13
2022-10-08T01:20:34.716Z,63.10
2022-10-08T01:21:29.488Z,63.07
2022-10-08T01:22:28.546Z,63.05
2022-10-08T01:23:29.282Z,63.03
2022-10-08T01:24:28.747Z,63.00
2022-10-08T01:25:35.579Z,62.97
2022-10-08T01:26:28.694Z,62.95
2022-10-08T01:27:28.884Z,62.92
2022-10-08T01:28:28.433Z,62.90
2022-10-08T01:29:28.553Z,62.89
2022-10-08T01:30:34.677Z,62.87
2022-10-08T01:31:50.250Z,62.87
2022-10-08T01:32:28.780Z,62.83
2022-10-08T01:33:28.613Z,62.82
2022-10-08T01:34:29.862Z,62.80
2022-10-08T01:36:13.245Z,62.37
2022-10-08T01:37:14.269Z,62.80
2022-10-08T01:38:13.363Z,62.82
2022-10-08T01:39:13.649Z,62.81
2022-10-08T01:40:13.280Z,62.78
2022-10-08T01:41:20.748Z,62.77
2022-10-08T01:42:13.570Z,62.75
2022-10-08T01:43:13.193Z,62.75
2022-10-08T01:44:13.466Z,62.75
2022-10-08T01:45:13.190Z,62.74
2022-10-08T01:46:14.228Z,62.74
2022-10-08T01:47:19.829Z,62.75
2022-10-08T01:48:13.122Z,62.72
2022-10-08T01:49:13.156Z,62.71
2022-10-08T01:50:14.161Z,62.68
2022-10-08T01:51:13.390Z,62.65
2022-10-08T01:52:20.662Z,62.65
2022-10-08T01:53:13.093Z,62.65
2022-10-08T01:54:13.332Z,62.65
2022-10-08T01:55:16.016Z,62.63
2022-10-08T01:56:13.395Z,62.63
2022-10-08T01:57:13.555Z,62.65
2022-10-08T01:58:19.294Z,62.64
2022-10-08T01:59:13.714Z,62.62
2022-10-08T02:00:13.060Z,62.62
2022-10-08T02:01:13.107Z,62.62
2022-10-08T02:02:13.947Z,62.59
2022-10-08T02:03:19.275Z,62.56
2022-10-08T02:04:13.007Z,62.56
2022-10-08T02:05:12.898Z,62.55
2022-10-08T02:06:13.091Z,62.52
2022-10-08T02:07:12.850Z,62.52
2022-10-08T02:08:14.027Z,62.52
2022-10-08T02:09:19.472Z,62.52
2022-10-08T02:10:12.873Z,62.50
2022-10-08T02:11:12.836Z,62.48
2022-10-08T02:12:12.837Z,62.46
2022-10-08T02:13:12.810Z,62.44
2022-10-08T02:14:20.774Z,62.45
2022-10-08T02:15:12.795Z,62.43
2022-10-08T02:16:12.747Z,62.41
2022-10-08T02:17:12.775Z,62.40
2022-10-08T02:18:13.889Z,62.39
2022-10-08T02:19:13.700Z,62.38
2022-10-08T02:20:20.175Z,62.39
2022-10-08T02:21:13.756Z,62.37
2022-10-08T02:22:13.669Z,62.35
2022-10-08T02:23:12.630Z,62.34
2022-10-08T02:24:12.665Z,62.34
2022-10-08T02:25:20.008Z,62.32
2022-10-08T02:26:12.602Z,62.32
2022-10-08T02:27:12.605Z,62.32
2022-10-08T02:28:12.629Z,62.31
2022-10-08T02:29:12.797Z,62.30
2022-10-08T02:30:18.891Z,62.31
2022-10-08T02:31:13.420Z,62.30
2022-10-08T02:32:12.818Z,62.30
2022-10-08T02:33:13.092Z,62.30
2022-10-08T02:34:12.535Z,62.28
2022-10-08T02:35:19.701Z,62.26
2022-10-08T02:36:12.826Z,62.27
2022-10-08T02:37:13.681Z,62.25
2022-10-08T02:38:12.431Z,62.26
2022-10-08T02:39:12.401Z,62.26
2022-10-08T02:40:19.515Z,62.24
2022-10-08T02:41:12.939Z,62.22
2022-10-08T02:42:18.855Z,62.22
2022-10-08T02:43:12.407Z,62.23
2022-10-08T02:44:12.750Z,62.22
2022-10-08T02:45:19.000Z,62.22
2022-10-08T02:46:12.533Z,62.22
2022-10-08T02:47:12.350Z,62.23
2022-10-08T02:48:12.348Z,62.21
2022-10-08T02:49:12.606Z,62.21
2022-10-08T02:50:31.283Z,62.18
2022-10-08T02:51:13.358Z,62.19
2022-10-08T02:52:13.297Z,62.21
2022-10-08T02:53:12.526Z,62.21
2022-10-08T02:54:12.469Z,62.20
2022-10-08T02:55:12.522Z,62.21
2022-10-08T02:56:22.798Z,62.22
2022-10-08T02:57:13.395Z,62.21
2022-10-08T02:58:19.358Z,62.23
2022-10-08T02:59:12.608Z,62.23
2022-10-08T03:00:13.417Z,62.23
2022-10-08T03:01:18.607Z,62.24
2022-10-08T03:02:12.215Z,62.24
2022-10-08T03:03:13.163Z,62.24
2022-10-08T03:04:12.175Z,62.26
2022-10-08T03:05:12.404Z,62.24
2022-10-08T03:06:18.494Z,62.26
2022-10-08T03:07:12.345Z,62.24
2022-10-08T03:08:12.161Z,62.25
2022-10-08T03:09:12.080Z,62.25
2022-10-08T03:10:12.822Z,62.25
2022-10-08T03:11:18.464Z,62.26
2022-10-08T03:12:12.062Z,62.28
2022-10-08T03:13:12.873Z,62.28
2022-10-08T03:14:13.425Z,62.28
2022-10-08T03:15:12.082Z,62.30
2022-10-08T03:16:19.525Z,62.30
2022-10-08T03:17:12.724Z,62.31
2022-10-08T03:18:12.016Z,62.32
2022-10-08T03:19:12.054Z,62.31
2022-10-08T03:20:12.040Z,62.31
2022-10-08T03:21:19.026Z,62.32
2022-10-08T03:22:13.156Z,62.32
2022-10-08T03:23:11.897Z,62.33
2022-10-08T03:24:11.907Z,62.32
2022-10-08T03:25:12.877Z,62.31
2022-10-08T03:26:12.961Z,62.30
2022-10-08T03:27:19.244Z,62.29
2022-10-08T03:28:11.822Z,62.28
2022-10-08T03:29:11.874Z,62.26
2022-10-08T03:30:13.027Z,62.23
2022-10-08T03:31:11.964Z,62.22
2022-10-08T03:32:12.859Z,62.21
2022-10-08T03:33:19.034Z,62.20
2022-10-08T03:34:13.052Z,62.18
2022-10-08T03:35:12.487Z,62.16
2022-10-08T03:36:12.175Z,62.16
2022-10-08T03:37:13.105Z,62.17
2022-10-08T03:38:12.771Z,62.17
2022-10-08T03:39:23.360Z,62.15
2022-10-08T03:40:12.289Z,62.16
2022-10-08T03:41:11.733Z,62.18
2022-10-08T03:42:12.272Z,62.18
2022-10-08T03:43:12.387Z,62.20
2022-10-08T03:44:17.992Z,62.21
2022-10-08T03:45:11.942Z,62.19
2022-10-08T03:46:16.068Z,62.20
2022-10-08T03:47:11.734Z,62.20
2022-10-08T03:48:11.596Z,62.20
2022-10-08T03:49:28.058Z,62.18
2022-10-08T03:50:11.871Z,62.19
2022-10-08T03:51:11.489Z,62.17
2022-10-08T03:52:11.515Z,62.18
2022-10-08T03:53:11.478Z,62.19
2022-10-08T03:54:12.609Z,62.19
2022-10-08T03:55:17.834Z,62.16
2022-10-08T03:56:11.417Z,62.16
2022-10-08T03:57:12.228Z,62.16
2022-10-08T03:58:12.895Z,62.15
2022-10-08T03:59:12.432Z,62.13
2022-10-08T04:00:11.414Z,62.13
2022-10-08T04:01:20.059Z,62.11
2022-10-08T04:02:11.412Z,62.10
2022-10-08T04:03:11.495Z,62.12
2022-10-08T04:04:12.571Z,62.10
2022-10-08T04:05:12.378Z,62.10
2022-10-08T04:06:12.445Z,62.08
2022-10-08T04:07:17.990Z,62.09
2022-10-08T04:08:12.526Z,62.06
2022-10-08T04:09:12.063Z,62.05
2022-10-08T04:10:11.318Z,62.04
2022-10-08T04:11:11.368Z,62.00
2022-10-08T04:12:11.350Z,62.00
2022-10-08T04:13:17.711Z,61.98
2022-10-08T04:14:13.150Z,61.97
2022-10-08T04:15:11.274Z,61.97
2022-10-08T04:16:12.009Z,61.96
2022-10-08T04:17:11.534Z,61.97
2022-10-08T04:18:12.261Z,61.97
2022-10-08T04:19:18.114Z,61.97
2022-10-08T04:20:12.344Z,61.98
2022-10-08T04:21:11.498Z,61.98
2022-10-08T04:22:12.582Z,62.00
2022-10-08T04:23:11.152Z,62.01
2022-10-08T04:24:24.873Z,62.02
2022-10-08T04:25:12.020Z,62.03
2022-10-08T04:26:14.234Z,62.05
2022-10-08T04:27:11.216Z,62.04
2022-10-08T04:28:12.222Z,62.06
2022-10-08T04:29:11.825Z,62.07
2022-10-08T04:30:18.634Z,62.06
2022-10-08T04:31:11.094Z,62.07
2022-10-08T04:32:11.406Z,62.04
2022-10-08T04:33:15.952Z,62.06
2022-10-08T04:34:11.010Z,62.06
2022-10-08T04:35:17.755Z,62.06
2022-10-08T04:36:11.220Z,62.06
2022-10-08T04:37:11.072Z,62.06
2022-10-08T04:38:11.638Z,62.06
2022-10-08T04:39:10.922Z,62.06
2022-10-08T04:40:11.470Z,62.08
2022-10-08T04:41:17.500Z,62.09
2022-10-08T04:42:11.065Z,62.08
2022-10-08T04:43:13.017Z,62.09
2022-10-08T04:44:10.860Z,62.09
2022-10-08T04:45:13.102Z,62.09
2022-10-08T04:46:18.010Z,62.09
2022-10-08T04:47:10.766Z,62.09
2022-10-08T04:48:11.508Z,62.10
2022-10-08T04:49:11.862Z,62.11
2022-10-08T04:50:10.918Z,62.12
2022-10-08T04:51:18.281Z,62.12
2022-10-08T04:52:10.870Z,62.13
2022-10-08T04:53:25.071Z,62.14
2022-10-08T04:54:11.037Z,62.18
2022-10-08T04:55:10.691Z,62.18
2022-10-08T04:56:13.712Z,62.20
2022-10-08T04:57:16.992Z,62.21
2022-10-08T04:58:10.665Z,62.23
2022-10-08T04:59:10.823Z,62.24
2022-10-08T05:00:32.955Z,62.23
2022-10-08T05:01:11.480Z,62.25
2022-10-08T05:02:11.108Z,62.24
2022-10-08T05:03:18.009Z,62.28
2022-10-08T05:04:10.684Z,62.27
2022-10-08T05:05:10.750Z,62.29
2022-10-08T05:06:10.568Z,62.30
2022-10-08T05:07:10.576Z,62.31
2022-10-08T05:08:10.632Z,62.32
2022-10-08T05:09:17.744Z,62.32
2022-10-08T05:10:10.533Z,62.32
2022-10-08T05:11:10.680Z,62.34
2022-10-08T05:12:10.562Z,62.34
2022-10-08T05:13:10.674Z,62.34
2022-10-08T05:14:17.880Z,62.33
2022-10-08T05:15:12.234Z,62.32
2022-10-08T05:16:10.658Z,62.35
2022-10-08T05:17:11.461Z,62.36
2022-10-08T05:18:10.511Z,62.37
2022-10-08T05:19:19.320Z,62.39
2022-10-08T05:20:11.207Z,62.44
2022-10-08T05:21:11.408Z,62.45
2022-10-08T05:22:11.748Z,62.47
2022-10-08T05:23:11.863Z,62.47
2022-10-08T05:24:17.990Z,62.48
2022-10-08T05:25:11.765Z,62.52
2022-10-08T05:26:10.756Z,62.55
2022-10-08T05:27:10.386Z,62.57
2022-10-08T05:28:10.596Z,62.58
2022-10-08T05:29:16.648Z,62.60
2022-10-08T05:30:10.517Z,62.61
2022-10-08T05:31:11.069Z,62.60
2022-10-08T05:32:10.334Z,62.60
2022-10-08T05:33:10.523Z,62.58
2022-10-08T05:34:10.239Z,62.55
2022-10-08T05:35:16.542Z,62.55
2022-10-08T05:36:10.217Z,62.52
2022-10-08T05:37:10.269Z,62.50
2022-10-08T05:38:11.132Z,62.50
2022-10-08T05:39:10.180Z,62.49
2022-10-08T05:40:11.076Z,62.48
2022-10-08T05:41:16.528Z,62.47
2022-10-08T05:42:10.500Z,62.45
2022-10-08T05:43:10.073Z,62.47
2022-10-08T05:44:11.929Z,62.46
2022-10-08T05:45:10.186Z,62.45
2022-10-08T05:46:18.167Z,62.43
2022-10-08T05:47:10.079Z,62.45
2022-10-08T05:48:10.169Z,62.44
2022-10-08T05:49:10.037Z,62.44
2022-10-08T05:50:10.023Z,62.43
2022-10-08T05:51:19.717Z,62.41
2022-10-08T05:52:10.038Z,62.42
2022-10-08T05:53:09.916Z,62.41
2022-10-08T05:54:10.359Z,62.41
2022-10-08T05:55:31.041Z,62.41
2022-10-08T05:56:16.536Z,62.42
2022-10-08T05:57:10.171Z,62.41
2022-10-08T05:58:12.234Z,62.40
2022-10-08T05:59:13.247Z,62.37
2022-10-08T06:00:09.917Z,62.35
2022-10-08T06:01:17.957Z,62.32
2022-10-08T06:02:09.822Z,62.31
2022-10-08T06:03:09.941Z,62.29
2022-10-08T06:04:12.931Z,62.29
2022-10-08T06:05:10.622Z,62.28
2022-10-08T06:06:09.809Z,62.27
2022-10-08T06:07:16.203Z,62.28
2022-10-08T06:08:09.837Z,62.26
2022-10-08T06:09:11.555Z,62.25
2022-10-08T06:10:09.976Z,62.21
2022-10-08T06:11:09.844Z,62.21
2022-10-08T06:12:09.689Z,62.18
2022-10-08T06:13:19.263Z,62.17
2022-10-08T06:14:10.459Z,62.14
2022-10-08T06:15:10.229Z,62.11
2022-10-08T06:16:10.021Z,62.11
2022-10-08T06:17:09.775Z,62.07
2022-10-08T06:18:11.101Z,62.05
2022-10-08T06:19:17.295Z,62.04
2022-10-08T06:20:09.678Z,62.01
2022-10-08T06:21:09.631Z,61.98
2022-10-08T06:22:10.392Z,61.98
2022-10-08T06:23:09.610Z,61.95
2022-10-08T06:24:16.091Z,61.95
2022-10-08T06:25:09.654Z,61.92
2022-10-08T06:26:09.824Z,61.90
2022-10-08T06:27:10.407Z,61.89
2022-10-08T06:28:10.181Z,61.88
2022-10-08T06:29:16.907Z,61.85
2022-10-08T06:30:09.705Z,61.82
2022-10-08T06:31:09.614Z,61.79
2022-10-08T06:32:09.561Z,61.76
2022-10-08T06:33:10.318Z,61.74
2022-10-08T06:34:15.830Z,61.70
2022-10-08T06:35:09.497Z,61.67
2022-10-08T06:36:09.728Z,61.67
2022-10-08T06:37:09.508Z,61.67
2022-10-08T06:38:09.398Z,61.68
2022-10-08T06:39:39.642Z,61.26
2022-10-08T06:40:39.651Z,61.66
2022-10-08T06:41:40.602Z,61.68
2022-10-08T06:42:39.611Z,61.67
2022-10-08T06:43:39.570Z,61.68
2022-10-08T06:45:23.595Z,61.26
2022-10-08T06:46:27.829Z,61.67
2022-10-08T06:47:23.497Z,61.66
2022-10-08T06:48:29.843Z,61.66
2022-10-08T06:49:46.535Z,61.66
2022-10-08T06:50:32.495Z,61.64
2022-10-08T06:51:23.983Z,61.61
2022-10-08T06:52:24.091Z,61.61
2022-10-08T06:53:23.759Z,61.61
2022-10-08T06:54:23.512Z,61.57
2022-10-08T06:55:30.630Z,61.57
2022-10-08T06:56:23.482Z,61.56
2022-10-08T06:57:23.398Z,61.56
2022-10-08T06:58:23.553Z,61.56
2022-10-08T07:00:32.284Z,61.12
2022-10-08T07:01:30.286Z,61.49
2022-10-08T07:02:27.455Z,61.47
2022-10-08T07:03:25.842Z,61.43
2022-10-08T07:04:46.838Z,61.39
2022-10-08T07:05:46.981Z,61.36
2022-10-08T07:06:32.054Z,61.34
2022-10-08T07:07:32.960Z,61.30
2022-10-08T07:08:25.857Z,61.29
2022-10-08T07:09:26.997Z,61.28
2022-10-08T07:10:29.721Z,61.29
2022-10-08T07:11:47.836Z,61.28
2022-10-08T07:12:26.692Z,61.28
2022-10-08T07:13:26.059Z,61.29
2022-10-08T07:14:25.664Z,61.28
2022-10-08T07:15:26.325Z,61.27
2022-10-08T07:17:13.371Z,60.87
2022-10-08T07:18:13.478Z,61.27
2022-10-08T07:19:11.149Z,61.30
2022-10-08T07:20:10.991Z,61.29
2022-10-08T07:22:11.384Z,60.87
2022-10-08T07:23:11.079Z,61.25
2022-10-08T07:24:11.451Z,61.26
2022-10-08T07:25:12.419Z,61.27
2022-10-08T07:26:13.149Z,61.27
2022-10-08T07:27:17.661Z,61.26
2022-10-08T07:28:11.255Z,61.23
2022-10-08T07:29:11.027Z,61.17
2022-10-08T07:30:32.050Z,61.11
2022-10-08T07:31:32.154Z,61.05
2022-10-08T07:32:31.706Z,61.01
2022-10-08T07:33:12.526Z,60.98
2022-10-08T07:34:33.077Z,60.95
2022-10-08T07:35:11.330Z,60.93
2022-10-08T07:36:11.363Z,60.91
2022-10-08T07:37:12.400Z,60.88
2022-10-08T07:38:18.368Z,60.85
2022-10-08T07:39:12.851Z,60.82
2022-10-08T07:40:11.300Z,60.79
2022-10-08T07:41:11.925Z,60.77
2022-10-08T07:42:15.309Z,60.76
2022-10-08T07:43:12.866Z,60.72
2022-10-08T07:45:02.901Z,60.25
2022-10-08T07:46:03.064Z,60.64
2022-10-08T07:46:41.789Z,60.63
2022-10-08T07:47:46.103Z,60.58
2022-10-08T07:48:42.886Z,60.56
2022-10-08T07:49:48.120Z,60.53
2022-10-08T07:50:42.772Z,60.51
2022-10-08T07:51:43.689Z,60.49
2022-10-08T07:52:41.635Z,60.46
2022-10-08T07:53:41.699Z,60.44
2022-10-08T07:54:41.845Z,60.41
2022-10-08T07:55:48.046Z,60.38
2022-10-08T07:56:42.633Z,60.34
2022-10-08T07:57:41.998Z,60.32
2022-10-08T07:58:41.734Z,60.27
2022-10-08T07:59:42.559Z,60.23
2022-10-08T08:00:52.103Z,60.21
2022-10-08T08:01:41.595Z,60.20
2022-10-08T08:03:04.323Z,60.22
2022-10-08T08:03:41.526Z,60.22
2022-10-08T08:04:45.618Z,60.20
2022-10-08T08:05:42.567Z,60.19
2022-10-08T08:06:52.007Z,60.18
2022-10-08T08:07:41.619Z,60.17
2022-10-08T08:08:41.855Z,60.15
2022-10-08T08:09:41.587Z,60.09
2022-10-08T08:10:41.779Z,60.06
2022-10-08T08:11:47.849Z,60.03
2022-10-08T08:12:42.312Z,59.98
2022-10-08T08:13:42.393Z,59.95
2022-10-08T08:14:41.599Z,59.91
2022-10-08T08:16:02.462Z,59.88
2022-10-08T08:16:48.016Z,59.86
2022-10-08T08:18:27.426Z,59.37
2022-10-08T08:19:27.955Z,59.77
2022-10-08T08:20:32.294Z,59.75
2022-10-08T08:21:28.968Z,59.69
2022-10-08T08:22:35.285Z,59.65
2022-10-08T08:23:28.140Z,59.61
2022-10-08T08:24:26.869Z,59.56
2022-10-08T08:25:27.029Z,59.54
2022-10-08T08:26:27.214Z,59.49
2022-10-08T08:27:33.263Z,59.47
2022-10-08T08:28:27.837Z,59.42
2022-10-08T08:29:27.909Z,59.38
2022-10-08T08:30:27.914Z,59.36
2022-10-08T08:31:26.876Z,59.31
2022-10-08T08:32:33.448Z,59.31
2022-10-08T08:33:26.883Z,59.29
2022-10-08T08:34:26.914Z,59.25
2022-10-08T08:35:27.833Z,59.23
2022-10-08T08:36:26.734Z,59.19
2022-10-08T08:37:26.901Z,59.15
2022-10-08T08:38:33.402Z,59.13
2022-10-08T08:39:29.594Z,59.10
2022-10-08T08:40:28.405Z,59.08
2022-10-08T08:41:26.679Z,59.06
2022-10-08T08:42:26.832Z,59.03
2022-10-08T08:43:33.180Z,59.01
2022-10-08T08:44:27.759Z,58.99
2022-10-08T08:45:46.403Z,58.97
2022-10-08T08:46:28.292Z,58.94
2022-10-08T08:47:27.931Z,58.88
2022-10-08T08:48:31.267Z,58.87
2022-10-08T08:49:35.067Z,58.83
2022-10-08T08:50:27.581Z,58.78
2022-10-08T08:51:26.731Z,58.71
2022-10-08T08:52:26.654Z,58.64
2022-10-08T08:53:26.787Z,58.55
2022-10-08T08:54:34.222Z,58.46
2022-10-08T08:55:27.376Z,58.41
2022-10-08T08:56:26.571Z,58.35
2022-10-08T08:57:27.831Z,58.36
2022-10-08T08:58:26.583Z,58.37
2022-10-08T08:59:32.800Z,58.42
2022-10-08T09:00:26.519Z,58.42
2022-10-08T09:01:26.748Z,58.43
2022-10-08T09:02:26.543Z,58.41
2022-10-08T09:03:27.585Z,58.37
2022-10-08T09:04:26.943Z,58.27
2022-10-08T09:05:34.865Z,58.09
2022-10-08T09:06:26.666Z,57.88
2022-10-08T09:07:26.779Z,57.72
2022-10-08T09:08:29.454Z,57.57
2022-10-08T09:09:27.957Z,57.46
2022-10-08T09:10:32.763Z,57.35
2022-10-08T09:11:33.222Z,57.23
2022-10-08T09:12:26.692Z,57.14
2022-10-08T09:13:34.290Z,57.13
2022-10-08T09:14:26.331Z,57.23
2022-10-08T09:15:26.452Z,57.41
2022-10-08T09:16:32.971Z,57.61
2022-10-08T09:17:26.479Z,57.78
2022-10-08T09:18:26.745Z,57.95
2022-10-08T09:19:27.874Z,58.05
2022-10-08T09:20:28.760Z,58.08
2022-10-08T09:21:35.166Z,58.09
2022-10-08T09:22:26.169Z,58.13
2022-10-08T09:23:31.044Z,58.15
2022-10-08T09:24:26.567Z,58.17
2022-10-08T09:25:26.374Z,58.20
2022-10-08T09:26:32.559Z,58.21
2022-10-08T09:27:26.386Z,58.18
2022-10-08T09:28:26.379Z,58.15
2022-10-08T09:29:27.069Z,58.16
2022-10-08T09:30:27.902Z,58.15
2022-10-08T09:31:32.732Z,58.13
2022-10-08T09:32:26.104Z,57.94
2022-10-08T09:33:26.955Z,57.74
2022-10-08T09:34:26.036Z,57.38
2022-10-08T09:35:26.293Z,57.00
2022-10-08T09:36:26.025Z,56.74
2022-10-08T09:37:32.333Z,56.50
2022-10-08T09:38:26.111Z,56.20
2022-10-08T09:39:26.035Z,56.02
2022-10-08T09:40:25.966Z,55.88
2022-10-08T09:41:25.936Z,55.74
2022-10-08T09:42:33.408Z,55.69
2022-10-08T09:43:26.038Z,55.61
2022-10-08T09:44:25.905Z,55.55
2022-10-08T09:45:26.368Z,55.54
2022-10-08T09:46:25.986Z,55.56
2022-10-08T09:47:25.967Z,55.60
2022-10-08T09:48:33.599Z,55.70
2022-10-08T09:49:26.882Z,55.86
2022-10-08T09:50:25.845Z,56.01
2022-10-08T09:51:25.859Z,56.11
2022-10-08T09:52:28.071Z,56.08
2022-10-08T09:53:35.273Z,56.05
2022-10-08T09:54:25.846Z,56.12
2022-10-08T09:55:26.655Z,56.16
2022-10-08T09:56:25.852Z,56.19
2022-10-08T09:57:25.767Z,56.17
2022-10-08T09:58:25.731Z,56.19
2022-10-08T09:59:32.116Z,56.14
2022-10-08T10:00:26.264Z,56.06
2022-10-08T10:01:26.406Z,56.12
2022-10-08T10:02:26.707Z,56.21
2022-10-08T10:03:25.781Z,56.35
2022-10-08T10:04:27.698Z,56.45
2022-10-08T10:05:32.048Z,56.48
2022-10-08T10:06:25.567Z,56.52
2022-10-08T10:07:25.935Z,56.52
2022-10-08T10:08:28.632Z,56.50
2022-10-08T10:09:25.536Z,56.40
2022-10-08T10:10:25.660Z,56.39
2022-10-08T10:11:32.735Z,56.43
2022-10-08T10:12:26.500Z,56.31
2022-10-08T10:13:25.561Z,56.29
2022-10-08T10:14:25.860Z,56.27
2022-10-08T10:15:25.468Z,56.17
2022-10-08T10:16:25.512Z,56.08
2022-10-08T10:17:32.015Z,55.97
2022-10-08T10:18:25.747Z,55.84
2022-10-08T10:19:25.448Z,55.75
2022-10-08T10:20:26.202Z,55.63
2022-10-08T10:21:25.368Z,55.53
2022-10-08T10:22:32.715Z,55.36
2022-10-08T10:23:25.356Z,55.33
2022-10-08T10:24:25.403Z,55.34
2022-10-08T10:25:29.336Z,55.41
2022-10-08T10:26:25.345Z,55.50
2022-10-08T10:27:31.691Z,55.66
2022-10-08T10:28:25.345Z,55.90
2022-10-08T10:29:25.292Z,56.20
2022-10-08T10:30:25.496Z,56.47
2022-10-08T10:31:26.289Z,56.70
2022-10-08T10:32:32.336Z,56.89
2022-10-08T10:33:25.863Z,57.07
2022-10-08T10:34:25.202Z,57.06
2022-10-08T10:35:25.768Z,56.87
2022-10-08T10:36:25.185Z,56.73
2022-10-08T10:37:31.502Z,56.76
2022-10-08T10:38:26.436Z,56.98
2022-10-08T10:39:25.507Z,57.23
2022-10-08T10:40:26.219Z,57.42
2022-10-08T10:41:25.129Z,57.52
2022-10-08T10:42:25.425Z,57.52
2022-10-08T10:43:31.429Z,57.42
2022-10-08T10:44:25.164Z,57.33
2022-10-08T10:45:25.473Z,57.28
2022-10-08T10:46:26.211Z,57.30
2022-10-08T10:47:29.611Z,57.35
2022-10-08T10:48:27.322Z,57.45
2022-10-08T10:49:33.517Z,57.51
2022-10-08T10:50:25.028Z,57.62
2022-10-08T10:51:25.413Z,57.81
2022-10-08T10:52:24.950Z,57.97
2022-10-08T10:53:24.993Z,57.95
2022-10-08T10:54:25.246Z,57.92
2022-10-08T10:55:32.297Z,57.89
2022-10-08T10:56:25.051Z,57.76
2022-10-08T10:57:26.072Z,57.53
2022-10-08T10:58:25.876Z,57.38
2022-10-08T10:59:24.957Z,57.24
2022-10-08T11:00:26.731Z,57.20
2022-10-08T11:01:32.212Z,57.26
2022-10-08T11:02:25.361Z,57.41
2022-10-08T11:03:24.983Z,57.63
2022-10-08T11:04:24.885Z,57.85
2022-10-08T11:05:24.768Z,57.99
2022-10-08T11:06:24.796Z,58.06
2022-10-08T11:07:31.174Z,58.08
2022-10-08T11:08:25.064Z,58.10
2022-10-08T11:09:24.886Z,58.05
2022-10-08T11:10:24.755Z,57.97
2022-10-08T11:11:29.565Z,57.95
2022-10-08T11:12:26.227Z,57.95
2022-10-08T11:13:31.232Z,58.00
2022-10-08T11:14:24.714Z,58.11
2022-10-08T11:15:24.643Z,58.23
2022-10-08T11:16:24.805Z,58.28
2022-10-08T11:17:25.613Z,58.33
2022-10-08T11:18:31.031Z,58.44
2022-10-08T11:19:24.575Z,58.60
2022-10-08T11:20:24.627Z,58.76
2022-10-08T11:21:24.579Z,58.88
2022-10-08T11:22:24.750Z,58.98
2022-10-08T11:23:24.586Z,59.06
2022-10-08T11:24:31.956Z,59.08
2022-10-08T11:25:24.599Z,59.08
2022-10-08T11:26:25.753Z,59.09
2022-10-08T11:27:24.744Z,59.11
2022-10-08T11:28:24.745Z,59.16
2022-10-08T11:29:24.495Z,59.24
2022-10-08T11:30:30.838Z,59.42
2022-10-08T11:31:28.923Z,59.58
2022-10-08T11:32:25.473Z,59.71
2022-10-08T11:34:13.952Z,59.25
2022-10-08T11:35:17.038Z,59.83
2022-10-08T11:36:22.443Z,59.86
2022-10-08T11:37:18.537Z,59.91
2022-10-08T11:38:15.375Z,59.95
2022-10-08T11:39:15.794Z,59.99
2022-10-08T11:40:14.977Z,60.04
2022-10-08T11:41:14.020Z,60.13
2022-10-08T11:42:20.218Z,60.25
2022-10-08T11:43:14.894Z,60.34
2022-10-08T11:44:14.567Z,60.49
2022-10-08T11:45:13.986Z,60.64
2022-10-08T11:46:35.444Z,60.77
2022-10-08T11:47:14.617Z,60.94
2022-10-08T11:48:13.952Z,61.08
2022-10-08T11:49:13.985Z,61.27
2022-10-08T11:50:13.948Z,61.41
2022-10-08T11:51:35.208Z,61.54
2022-10-08T11:52:36.163Z,61.59
2022-10-08T11:53:20.226Z,61.58
2022-10-08T11:54:14.695Z,61.56
2022-10-08T11:55:14.919Z,61.63
2022-10-08T11:56:13.775Z,61.71
2022-10-08T11:57:13.827Z,61.70
2022-10-08T11:58:13.816Z,61.62
2022-10-08T11:59:14.063Z,61.47
2022-10-08T12:00:15.387Z,61.34
2022-10-08T12:01:13.867Z,61.25
2022-10-08T12:02:13.973Z,61.12
2022-10-08T12:03:14.016Z,60.96
2022-10-08T12:04:23.001Z,60.84
2022-10-08T12:05:13.612Z,60.70
2022-10-08T12:06:13.618Z,60.55
2022-10-08T12:07:14.013Z,60.45
2022-10-08T12:08:13.642Z,60.35
2022-10-08T12:09:19.896Z,60.27
2022-10-08T12:10:13.655Z,60.15
2022-10-08T12:11:14.564Z,59.99
2022-10-08T12:12:13.503Z,59.83
2022-10-08T12:13:17.669Z,59.68
2022-10-08T12:14:13.612Z,59.49
2022-10-08T12:15:13.786Z,59.28
2022-10-08T12:16:13.544Z,59.15
2022-10-08T12:17:13.428Z,59.15
2022-10-08T12:18:14.423Z,59.22
2022-10-08T12:19:14.266Z,59.28
2022-10-08T12:20:13.547Z,59.32
2022-10-08T12:21:19.753Z,59.36
2022-10-08T12:22:13.341Z,59.37
2022-10-08T12:23:13.583Z,59.35
2022-10-08T12:24:13.696Z,59.31
2022-10-08T12:25:13.339Z,59.24
2022-10-08T12:26:19.703Z,59.14
2022-10-08T12:27:13.364Z,58.99
2022-10-08T12:28:13.863Z,58.84
2022-10-08T12:29:13.320Z,58.68
2022-10-08T12:30:13.420Z,58.57
2022-10-08T12:31:13.264Z,58.50
2022-10-08T12:32:13.326Z,58.44
2022-10-08T12:33:13.362Z,58.37
2022-10-08T12:34:13.275Z,58.23
2022-10-08T12:35:13.252Z,58.02
2022-10-08T12:36:13.353Z,57.85
2022-10-08T12:37:16.453Z,57.79
2022-10-08T12:38:19.474Z,57.80
2022-10-08T12:39:13.209Z,57.82
2022-10-08T12:40:13.178Z,57.73
2022-10-08T12:41:13.589Z,57.73
2022-10-08T12:42:13.227Z,57.89
2022-10-08T12:43:13.436Z,58.05
2022-10-08T12:44:13.581Z,58.20
2022-10-08T12:45:13.072Z,58.35
2022-10-08T12:46:13.111Z,58.52
2022-10-08T12:47:12.997Z,58.71
2022-10-08T12:48:13.038Z,58.95
2022-10-08T12:49:20.420Z,59.18
2022-10-08T12:50:13.127Z,59.39
2022-10-08T12:51:12.995Z,59.53
2022-10-08T12:52:13.026Z,59.46
2022-10-08T12:53:16.121Z,59.25
2022-10-08T12:54:20.027Z,58.95
2022-10-08T12:55:13.218Z,58.62
2022-10-08T12:56:14.725Z,57.54
2022-10-08T12:57:13.080Z,57.56
2022-10-08T12:58:16.003Z,57.73
2022-10-08T12:59:14.038Z,57.82